createdAt,value
2023-03-19T00:02:02.096Z,44.98
2023-03-19T00:04:32.703Z,45.39
2023-03-19T00:06:59.313Z,45.90
2023-03-19T00:09:25.947Z,46.35
2023-03-19T00:11:52.594Z,46.87
2023-03-19T00:14:19.216Z,46.94
2023-03-19T00:16:45.915Z,48.19
2023-03-19T00:19:12.582Z,48.25
2023-03-19T00:21:39.215Z,49.15
2023-03-19T00:24:05.926Z,49.38
2023-03-19T00:26:33.237Z,50.19
2023-03-19T00:29:00.093Z,51.39
2023-03-19T00:31:26.863Z,51.90
2023-03-19T00:33:53.702Z,51.93
2023-03-19T00:36:20.600Z,51.08
2023-03-19T00:38:47.315Z,51.78
2023-03-19T00:41:13.969Z,52.10
2023-03-19T00:43:40.618Z,51.97
2023-03-19T00:46:07.322Z,52.22
2023-03-19T00:48:33.965Z,52.14
2023-03-19T00:51:07.568Z,51.71
2023-03-19T00:53:37.551Z,50.37
2023-03-19T00:56:12.960Z,48.40
2023-03-19T00:58:39.723Z,47.99
2023-03-19T01:01:07.207Z,48.81
2023-03-19T01:03:33.862Z,49.46
2023-03-19T01:06:00.487Z,50.59
2023-03-19T01:08:27.155Z,47.97
2023-03-19T01:10:53.814Z,50.22
2023-03-19T01:13:20.450Z,51.05
2023-03-19T01:15:47.148Z,50.84
2023-03-19T01:18:13.866Z,50.65
2023-03-19T01:20:40.660Z,51.08
2023-03-19T01:23:07.332Z,51.00
2023-03-19T01:25:34.160Z,49.42
2023-03-19T01:28:00.775Z,49.00
2023-03-19T01:30:27.405Z,49.08
2023-03-19T01:32:54.083Z,48.15
2023-03-19T01:35:20.754Z,48.47
2023-03-19T01:37:47.440Z,49.32
2023-03-19T01:40:14.196Z,49.97
2023-03-19T01:42:57.259Z,50.35
2023-03-19T01:45:35.048Z,52.19
2023-03-19T01:48:01.714Z,53.01
2023-03-19T01:50:40.116Z,54.23
2023-03-19T01:53:06.826Z,56.09
2023-03-19T01:55:33.458Z,57.93
2023-03-19T01:58:00.108Z,58.28
2023-03-19T02:00:27.698Z,58.47
2023-03-19T02:02:54.329Z,59.37
2023-03-19T02:05:20.965Z,58.76
2023-03-19T02:07:47.606Z,58.03
2023-03-19T02:10:14.916Z,57.80
2023-03-19T02:12:41.544Z,58.13
2023-03-19T02:15:08.279Z,58.29
2023-03-19T02:17:34.922Z,58.06
2023-03-19T02:20:14.026Z,58.29
2023-03-19T02:22:43.301Z,59.84
2023-03-19T02:25:13.459Z,59.67
2023-03-19T02:27:40.114Z,58.69
2023-03-19T02:30:29.000Z,58.05
2023-03-19T02:32:55.682Z,56.41
2023-03-19T02:35:22.350Z,56.62
2023-03-19T02:37:48.977Z,58.26
2023-03-19T02:40:21.405Z,55.94
2023-03-19T02:42:48.102Z,57.19
2023-03-19T02:45:24.224Z,59.29
2023-03-19T02:47:50.854Z,59.07
2023-03-19T02:50:17.529Z,59.22
2023-03-19T02:52:44.165Z,60.17
2023-03-19T02:55:10.810Z,60.05
2023-03-19T02:57:37.458Z,58.81
2023-03-19T03:00:17.458Z,58.99
2023-03-19T03:02:44.330Z,58.53
2023-03-19T03:05:10.997Z,60.06
2023-03-19T03:07:37.684Z,60.38
2023-03-19T03:10:04.470Z,60.60
2023-03-19T03:12:31.117Z,60.04
2023-03-19T03:14:57.740Z,59.50
2023-03-19T03:17:24.373Z,60.03
2023-03-19T03:19:51.040Z,58.85
2023-03-19T03:22:17.692Z,58.58
2023-03-19T03:24:44.330Z,57.11
2023-03-19T03:27:10.958Z,57.08
2023-03-19T03:29:37.590Z,57.50
2023-03-19T03:32:04.270Z,57.22
2023-03-19T03:34:30.914Z,57.17
2023-03-19T03:36:57.553Z,56.11
2023-03-19T03:39:24.216Z,55.92
2023-03-19T03:41:50.878Z,56.55
2023-03-19T03:44:17.546Z,56.02
2023-03-19T03:46:47.091Z,56.97
2023-03-19T03:49:13.738Z,56.70
2023-03-19T03:51:40.386Z,56.57
2023-03-19T03:54:07.049Z,56.50
2023-03-19T03:56:33.708Z,56.25
2023-03-19T03:59:00.336Z,56.63
2023-03-19T04:01:26.968Z,55.86
2023-03-19T04:03:53.795Z,55.55
2023-03-19T04:06:21.176Z,55.54
2023-03-19T04:08:47.824Z,55.53
2023-03-19T04:11:14.658Z,56.22
2023-03-19T04:13:41.304Z,56.17
2023-03-19T04:16:08.914Z,55.95
2023-03-19T04:18:35.927Z,55.84
2023-03-19T04:21:03.100Z,55.62
2023-03-19T04:23:29.798Z,55.13
2023-03-19T04:26:00.384Z,54.82
2023-03-19T04:28:27.171Z,55.14
2023-03-19T04:30:59.091Z,55.49
2023-03-19T04:33:25.736Z,55.49
2023-03-19T04:35:52.400Z,56.36
2023-03-19T04:38:19.048Z,55.56
2023-03-19T04:40:46.726Z,55.03
2023-03-19T04:43:13.370Z,55.14
2023-03-19T04:45:39.998Z,55.02
2023-03-19T04:48:06.630Z,54.98
2023-03-19T04:50:33.654Z,54.67
2023-03-19T04:53:00.544Z,54.59
2023-03-19T04:55:27.168Z,54.63
2023-03-19T04:57:53.864Z,54.32
2023-03-19T05:00:20.712Z,53.88
2023-03-19T05:02:47.318Z,53.52
2023-03-19T05:05:13.949Z,53.35
2023-03-19T05:07:40.591Z,53.30
2023-03-19T05:10:07.561Z,53.96
2023-03-19T05:12:34.191Z,54.27
2023-03-19T05:15:00.836Z,54.48
2023-03-19T05:17:27.470Z,56.18
2023-03-19T05:19:54.113Z,55.73
2023-03-19T05:22:20.741Z,55.39
2023-03-19T05:24:47.394Z,55.67
2023-03-19T05:27:14.059Z,56.29
2023-03-19T05:29:41.040Z,57.54
2023-03-19T05:32:07.777Z,57.85
2023-03-19T05:34:34.410Z,58.05
2023-03-19T05:37:01.067Z,58.49
2023-03-19T05:39:27.733Z,57.88
2023-03-19T05:41:54.386Z,57.92
2023-03-19T05:44:21.053Z,58.13
2023-03-19T05:46:47.723Z,58.70
2023-03-19T05:49:14.418Z,58.44
2023-03-19T05:51:41.062Z,58.31
2023-03-19T05:54:07.697Z,58.51
2023-03-19T05:56:34.338Z,58.85
2023-03-19T05:59:00.973Z,58.58
2023-03-19T06:01:27.657Z,58.42
2023-03-19T06:03:54.309Z,58.15
2023-03-19T06:06:20.996Z,57.81
2023-03-19T06:08:47.673Z,58.51
2023-03-19T06:11:14.284Z,58.07
2023-03-19T06:13:41.050Z,59.27
2023-03-19T06:16:07.794Z,59.87
2023-03-19T06:18:34.488Z,59.85
2023-03-19T06:21:01.129Z,58.98
2023-03-19T06:23:27.766Z,59.82
2023-03-19T06:25:54.481Z,59.29
2023-03-19T06:28:21.139Z,58.89
2023-03-19T06:30:47.792Z,57.91
2023-03-19T06:33:14.425Z,59.00
2023-03-19T06:35:41.094Z,58.02
2023-03-19T06:38:07.747Z,57.95
2023-03-19T06:40:34.557Z,58.26
2023-03-19T06:43:01.586Z,57.18
2023-03-19T06:45:28.328Z,57.46
2023-03-19T06:47:54.993Z,58.13
2023-03-19T06:50:21.637Z,57.12
2023-03-19T06:52:48.289Z,57.15
2023-03-19T06:55:14.929Z,57.99
2023-03-19T06:57:41.631Z,58.57
2023-03-19T07:00:08.928Z,57.98
2023-03-19T07:02:35.595Z,57.45
2023-03-19T07:05:02.215Z,58.41
2023-03-19T07:07:28.962Z,57.94
2023-03-19T07:09:55.626Z,58.64
2023-03-19T07:12:22.491Z,58.57
2023-03-19T07:14:49.133Z,58.56
2023-03-19T07:17:15.770Z,59.07
2023-03-19T07:19:42.419Z,59.67
2023-03-19T07:22:09.050Z,59.83
2023-03-19T07:24:35.684Z,60.17
2023-03-19T07:27:02.335Z,59.98
2023-03-19T07:29:28.985Z,60.22
2023-03-19T07:31:55.621Z,60.62
2023-03-19T07:34:22.293Z,60.35
2023-03-19T07:36:48.954Z,61.11
2023-03-19T07:39:15.631Z,60.94
2023-03-19T07:41:42.251Z,60.80
2023-03-19T07:44:08.887Z,60.00
2023-03-19T07:46:35.580Z,59.75
2023-03-19T07:49:02.217Z,59.95
2023-03-19T07:51:28.887Z,58.81
2023-03-19T07:53:55.538Z,58.84
2023-03-19T07:56:22.172Z,59.08
2023-03-19T07:58:48.974Z,58.43
2023-03-19T08:01:15.731Z,57.48
2023-03-19T08:03:42.454Z,57.93
2023-03-19T08:06:09.985Z,57.30
2023-03-19T08:08:36.667Z,57.75
2023-03-19T08:11:03.553Z,56.93
2023-03-19T08:13:30.190Z,55.58
2023-03-19T08:15:56.825Z,56.67
2023-03-19T08:18:23.500Z,57.22
2023-03-19T08:20:50.159Z,56.54
2023-03-19T08:23:16.864Z,57.77
2023-03-19T08:25:43.502Z,55.84
2023-03-19T08:28:10.154Z,56.68
2023-03-19T08:30:37.597Z,56.23
2023-03-19T08:33:04.782Z,55.34
2023-03-19T08:35:31.507Z,54.99
2023-03-19T08:37:58.233Z,54.98
2023-03-19T08:40:24.873Z,54.77
2023-03-19T08:42:51.566Z,54.67
2023-03-19T08:45:18.753Z,55.33
2023-03-19T08:47:45.453Z,55.45
2023-03-19T08:50:12.090Z,55.69
2023-03-19T08:52:38.746Z,56.19
2023-03-19T08:55:05.800Z,55.71
2023-03-19T08:57:32.514Z,55.69
2023-03-19T08:59:59.193Z,55.28
2023-03-19T09:02:25.853Z,54.95
2023-03-19T09:04:52.566Z,55.14
2023-03-19T09:07:19.208Z,53.93
2023-03-19T09:09:45.868Z,52.95
2023-03-19T09:12:14.351Z,53.13
2023-03-19T09:14:41.033Z,53.65
2023-03-19T09:17:07.810Z,54.23
2023-03-19T09:19:34.537Z,54.04
2023-03-19T09:22:01.174Z,53.80
2023-03-19T09:24:27.814Z,54.62
2023-03-19T09:26:54.496Z,55.22
2023-03-19T09:29:21.146Z,54.93
2023-03-19T09:31:47.887Z,54.68
2023-03-19T09:34:14.532Z,54.23
2023-03-19T09:36:41.199Z,54.10
2023-03-19T09:39:07.877Z,55.76
2023-03-19T09:41:49.516Z,55.32
2023-03-19T09:44:19.904Z,55.16
2023-03-19T09:46:56.022Z,54.77
2023-03-19T09:49:24.795Z,54.35
2023-03-19T09:52:20.706Z,54.18
2023-03-19T09:54:48.755Z,53.88
2023-03-19T09:57:15.398Z,54.23
2023-03-19T09:59:42.028Z,52.62
2023-03-19T10:02:08.546Z,53.88
2023-03-19T10:04:48.378Z,53.47
2023-03-19T10:07:23.424Z,51.72
2023-03-19T10:10:03.510Z,49.76
2023-03-19T10:13:06.273Z,49.43
2023-03-19T10:15:33.402Z,50.41
2023-03-19T10:18:01.279Z,50.83
2023-03-19T10:20:39.596Z,51.88
2023-03-19T10:23:27.429Z,53.01
2023-03-19T10:25:55.339Z,53.03
2023-03-19T10:28:22.168Z,52.46
2023-03-19T10:31:12.583Z,52.41
2023-03-19T10:33:53.178Z,51.97
2023-03-19T10:36:20.233Z,52.31
2023-03-19T10:38:47.017Z,53.22
2023-03-19T10:41:35.921Z,53.60
2023-03-19T10:44:04.178Z,54.06
2023-03-19T10:46:40.316Z,54.49
2023-03-19T10:49:13.346Z,54.54
2023-03-19T10:51:40.390Z,54.14
2023-03-19T10:54:20.441Z,54.85
2023-03-19T10:56:47.298Z,54.62
2023-03-19T10:59:25.580Z,56.35
2023-03-19T11:01:56.779Z,56.33
2023-03-19T11:04:25.589Z,55.90
2023-03-19T11:06:53.472Z,55.86
2023-03-19T11:09:36.712Z,55.58
2023-03-19T11:12:22.725Z,56.47
2023-03-19T11:14:51.203Z,55.17
2023-03-19T11:17:21.894Z,56.33
2023-03-19T11:19:53.672Z,56.59
2023-03-19T11:22:27.276Z,57.14
2023-03-19T11:25:00.068Z,58.03
2023-03-19T11:27:35.669Z,57.32
2023-03-19T11:30:03.636Z,56.82
2023-03-19T11:32:49.632Z,56.77
2023-03-19T11:35:26.205Z,58.31
2023-03-19T11:37:59.776Z,58.29
2023-03-19T11:40:35.519Z,57.36
2023-03-19T11:43:39.722Z,57.55
2023-03-19T11:46:12.282Z,57.78
2023-03-19T11:48:44.976Z,58.26
2023-03-19T11:51:15.718Z,59.51
2023-03-19T11:53:48.125Z,59.39
2023-03-19T11:56:39.470Z,60.31
2023-03-19T11:59:28.961Z,61.54
2023-03-19T12:02:23.555Z,62.12
2023-03-19T12:05:05.067Z,62.80
2023-03-19T12:07:39.179Z,63.31
2023-03-19T12:10:27.466Z,62.55
2023-03-19T12:13:06.829Z,59.72
2023-03-19T12:15:36.485Z,58.46
2023-03-19T12:18:41.225Z,59.52
2023-03-19T12:21:35.780Z,59.76
2023-03-19T12:24:35.098Z,60.71
2023-03-19T12:27:01.610Z,59.42
2023-03-19T12:29:54.925Z,59.35
2023-03-19T12:32:56.999Z,59.88
2023-03-19T12:35:39.771Z,58.98
2023-03-19T12:38:10.958Z,58.73
2023-03-19T12:40:56.177Z,57.35
2023-03-19T12:43:28.813Z,58.31
2023-03-19T12:45:58.397Z,59.27
2023-03-19T12:48:29.895Z,58.88
2023-03-19T12:50:57.469Z,59.43
2023-03-19T12:53:29.982Z,59.05
2023-03-19T12:56:02.274Z,58.40
2023-03-19T12:58:58.844Z,58.56
2023-03-19T13:01:41.341Z,58.19
2023-03-19T13:04:10.903Z,57.63
2023-03-19T13:06:39.137Z,59.14
2023-03-19T13:09:20.371Z,58.88
2023-03-19T13:11:50.644Z,59.51
2023-03-19T13:14:25.153Z,59.48
2023-03-19T13:17:08.672Z,57.06
2023-03-19T13:19:48.680Z,57.66
2023-03-19T13:22:36.020Z,59.09
2023-03-19T13:25:02.675Z,59.67
2023-03-19T13:27:33.664Z,59.50
2023-03-19T13:30:09.186Z,59.49
2023-03-19T13:32:49.668Z,59.89
2023-03-19T13:35:25.503Z,61.98
2023-03-19T13:38:02.932Z,62.68
2023-03-19T13:40:49.284Z,63.26
2023-03-19T13:43:29.035Z,64.79
2023-03-19T13:46:11.019Z,64.67
2023-03-19T13:48:46.916Z,63.71
2023-03-19T13:51:17.806Z,63.45
2023-03-19T13:54:05.976Z,63.11
2023-03-19T13:56:32.892Z,62.01
2023-03-19T13:59:30.682Z,62.82
2023-03-19T14:01:57.733Z,62.31
2023-03-19T14:04:31.605Z,63.83
2023-03-19T14:07:11.488Z,63.27
2023-03-19T14:09:41.537Z,63.25
2023-03-19T14:12:20.151Z,62.39
2023-03-19T14:14:50.736Z,63.61
2023-03-19T14:17:21.160Z,63.54
2023-03-19T14:19:48.205Z,63.93
2023-03-19T14:22:39.930Z,63.37
2023-03-19T14:25:18.069Z,63.99
2023-03-19T14:28:09.227Z,63.61
2023-03-19T14:30:45.709Z,63.83
2023-03-19T14:33:38.414Z,63.16
2023-03-19T14:36:05.288Z,63.23
2023-03-19T14:38:40.429Z,63.62
2023-03-19T14:41:07.063Z,62.57
2023-03-19T14:43:45.724Z,62.86
2023-03-19T14:46:38.468Z,62.53
2023-03-19T14:49:42.067Z,61.94
2023-03-19T14:52:14.731Z,60.60
2023-03-19T14:54:52.217Z,60.76
2023-03-19T14:57:26.058Z,61.40
2023-03-19T14:59:52.755Z,59.29
2023-03-19T15:02:50.637Z,58.38
2023-03-19T15:05:30.650Z,60.27
2023-03-19T15:08:01.440Z,59.56
2023-03-19T15:10:28.944Z,59.01
2023-03-19T15:13:13.580Z,58.33
2023-03-19T15:16:21.798Z,58.15
2023-03-19T15:18:49.072Z,58.64
2023-03-19T15:21:15.723Z,57.00
2023-03-19T15:23:44.454Z,55.82
2023-03-19T15:26:11.110Z,55.66
2023-03-19T15:28:45.977Z,56.36
2023-03-19T15:31:30.025Z,55.91
2023-03-19T15:33:59.446Z,56.77
2023-03-19T15:36:31.585Z,59.40
2023-03-19T15:39:03.333Z,59.07
2023-03-19T15:41:32.437Z,59.01
2023-03-19T15:43:59.650Z,58.17
2023-03-19T15:46:28.781Z,59.27
2023-03-19T15:49:00.339Z,59.12
2023-03-19T15:51:26.996Z,59.33
2023-03-19T15:53:53.858Z,59.57
2023-03-19T15:56:20.525Z,60.30
2023-03-19T15:58:53.182Z,59.61
2023-03-19T16:01:20.128Z,60.03
2023-03-19T16:03:51.224Z,62.24
2023-03-19T16:06:27.030Z,60.40
2023-03-19T16:08:54.652Z,61.58
2023-03-19T16:11:34.414Z,61.64
2023-03-19T16:14:31.748Z,62.42
2023-03-19T16:17:02.687Z,61.30
2023-03-19T16:19:30.318Z,60.84
2023-03-19T16:21:57.033Z,62.89
2023-03-19T16:24:34.553Z,61.68
2023-03-19T16:27:03.892Z,61.74
2023-03-19T16:29:34.417Z,61.24
2023-03-19T16:32:02.803Z,62.80
2023-03-19T16:34:41.577Z,59.35
2023-03-19T16:37:25.052Z,60.14
2023-03-19T16:40:21.686Z,61.11
2023-03-19T16:42:48.815Z,60.03
2023-03-19T16:45:15.369Z,60.87
2023-03-19T16:47:42.468Z,61.32
2023-03-19T16:50:09.899Z,60.90
2023-03-19T16:52:36.561Z,60.60
2023-03-19T16:55:04.115Z,61.29
2023-03-19T16:57:30.883Z,61.54
2023-03-19T16:59:58.033Z,61.87
2023-03-19T17:02:24.706Z,61.76
2023-03-19T17:04:51.396Z,63.43
2023-03-19T17:07:18.059Z,62.72
2023-03-19T17:09:44.701Z,62.45
2023-03-19T17:12:14.245Z,62.19
2023-03-19T17:14:40.910Z,61.81
2023-03-19T17:17:16.485Z,61.44
2023-03-19T17:19:43.115Z,61.90
2023-03-19T17:22:10.056Z,62.85
2023-03-19T17:24:36.836Z,63.09
2023-03-19T17:27:03.698Z,63.70
2023-03-19T17:29:30.419Z,63.70
2023-03-19T17:31:57.847Z,63.82
2023-03-19T17:34:26.636Z,64.15
2023-03-19T17:36:57.660Z,64.19
2023-03-19T17:39:24.430Z,63.64
2023-03-19T17:41:51.230Z,63.59
2023-03-19T17:44:17.866Z,64.15
2023-03-19T17:46:46.074Z,63.71
2023-03-19T17:49:18.476Z,64.03
2023-03-19T17:51:45.298Z,63.95
2023-03-19T17:54:12.008Z,62.73
2023-03-19T17:56:38.701Z,62.80
2023-03-19T17:59:05.349Z,63.11
2023-03-19T18:01:32.111Z,63.36
2023-03-19T18:03:59.284Z,63.16
2023-03-19T18:06:28.734Z,62.83
2023-03-19T18:08:55.514Z,63.90
2023-03-19T18:11:22.310Z,63.35
2023-03-19T18:13:48.987Z,63.92
2023-03-19T18:16:29.827Z,63.72
2023-03-19T18:18:58.406Z,65.40
2023-03-19T18:21:25.249Z,65.77
2023-03-19T18:23:51.908Z,66.95
2023-03-19T18:26:18.590Z,67.18
2023-03-19T18:28:45.234Z,67.77
2023-03-19T18:31:17.353Z,68.51
2023-03-19T18:33:49.945Z,68.53
2023-03-19T18:36:24.336Z,67.96
2023-03-19T18:38:51.888Z,67.69
2023-03-19T18:41:19.311Z,67.86
2023-03-19T18:43:45.999Z,69.36
2023-03-19T18:46:17.379Z,68.84
2023-03-19T18:48:44.026Z,68.63
2023-03-19T18:51:11.399Z,69.29
2023-03-19T18:53:38.516Z,69.63
2023-03-19T18:56:19.050Z,70.06
2023-03-19T18:58:45.674Z,69.92
2023-03-19T19:01:15.908Z,70.11
2023-03-19T19:03:43.081Z,69.17
2023-03-19T19:06:09.733Z,69.55
2023-03-19T19:08:36.397Z,69.84
2023-03-19T19:11:03.045Z,69.18
2023-03-19T19:13:31.295Z,68.64
2023-03-19T19:15:57.971Z,68.89
2023-03-19T19:18:27.327Z,69.06
2023-03-19T19:20:53.940Z,69.90
2023-03-19T19:23:21.229Z,68.30
2023-03-19T19:25:48.512Z,68.52
2023-03-19T19:28:19.628Z,69.30
2023-03-19T19:30:46.759Z,69.80
2023-03-19T19:33:20.141Z,69.29
2023-03-19T19:35:46.868Z,68.66
2023-03-19T19:38:13.810Z,68.93
2023-03-19T19:40:42.034Z,69.05
2023-03-19T19:43:18.149Z,69.56
2023-03-19T19:45:45.514Z,70.83
2023-03-19T19:48:22.869Z,70.75
2023-03-19T19:50:49.518Z,70.58
2023-03-19T19:53:16.232Z,72.45
2023-03-19T19:55:42.890Z,72.19
2023-03-19T19:58:24.565Z,73.94
2023-03-19T20:01:02.884Z,72.26
2023-03-19T20:03:31.165Z,72.08
2023-03-19T20:05:58.116Z,72.72
2023-03-19T20:08:24.804Z,69.62
2023-03-19T20:10:51.485Z,69.62
2023-03-19T20:13:22.994Z,71.89
2023-03-19T20:15:49.705Z,71.53
2023-03-19T20:18:17.230Z,72.10
2023-03-19T20:20:43.907Z,71.14
2023-03-19T20:23:10.554Z,71.52
2023-03-19T20:25:37.610Z,71.04
2023-03-19T20:28:04.768Z,70.54
2023-03-19T20:30:38.505Z,71.77
2023-03-19T20:33:05.182Z,71.73
2023-03-19T20:35:36.022Z,70.34
2023-03-19T20:38:04.144Z,71.08
2023-03-19T20:40:35.238Z,70.46
2023-03-19T20:43:01.896Z,70.36
2023-03-19T20:45:34.283Z,70.92
2023-03-19T20:48:01.078Z,71.34
2023-03-19T20:50:29.368Z,71.72
2023-03-19T20:52:56.092Z,71.12
2023-03-19T20:55:24.133Z,70.96
2023-03-19T20:57:50.897Z,70.22
2023-03-19T21:00:24.442Z,71.38
2023-03-19T21:02:54.754Z,70.53
2023-03-19T21:05:21.451Z,70.70
2023-03-19T21:07:49.430Z,70.39
2023-03-19T21:10:28.093Z,71.29
2023-03-19T21:12:55.114Z,70.83
2023-03-19T21:15:21.749Z,70.57
2023-03-19T21:17:48.377Z,71.33
2023-03-19T21:20:22.192Z,71.25
2023-03-19T21:23:08.463Z,71.99
2023-03-19T21:25:35.333Z,72.98
2023-03-19T21:28:03.910Z,73.78
2023-03-19T21:30:30.548Z,75.05
2023-03-19T21:32:57.268Z,75.52
2023-03-19T21:35:25.465Z,76.29
2023-03-19T21:37:52.253Z,76.30
2023-03-19T21:40:25.474Z,76.63
2023-03-19T21:42:53.666Z,76.64
2023-03-19T21:45:24.043Z,75.91
2023-03-19T21:47:50.678Z,75.15
2023-03-19T21:50:18.487Z,74.95
2023-03-19T21:52:57.797Z,75.22
2023-03-19T21:55:25.322Z,75.24
2023-03-19T21:57:54.438Z,74.95
2023-03-19T22:00:21.072Z,75.03
2023-03-19T22:02:48.308Z,74.96
2023-03-19T22:05:27.706Z,75.80
2023-03-19T22:07:54.442Z,75.47
2023-03-19T22:10:23.143Z,75.32
2023-03-19T22:12:49.854Z,74.89
2023-03-19T22:15:20.296Z,74.96
2023-03-19T22:17:47.804Z,74.33
2023-03-19T22:20:19.029Z,74.27
2023-03-19T22:22:45.652Z,75.46
2023-03-19T22:25:13.251Z,74.83
2023-03-19T22:27:40.990Z,75.07
2023-03-19T22:30:18.819Z,74.36
2023-03-19T22:32:45.555Z,72.71
2023-03-19T22:35:16.795Z,72.84
2023-03-19T22:37:43.406Z,73.42
2023-03-19T22:40:14.181Z,74.63
2023-03-19T22:42:40.817Z,74.72
2023-03-19T22:45:07.692Z,74.33
2023-03-19T22:47:35.451Z,73.36
2023-03-19T22:50:02.082Z,74.15
2023-03-19T22:52:28.749Z,74.47
2023-03-19T22:54:55.359Z,74.12
2023-03-19T22:57:22.245Z,73.45
2023-03-19T22:59:48.929Z,73.00
2023-03-19T23:02:15.569Z,72.61
2023-03-19T23:04:42.234Z,75.11
2023-03-19T23:07:10.886Z,76.06
2023-03-19T23:09:37.528Z,77.16
2023-03-19T23:12:04.727Z,77.23
2023-03-19T23:14:31.649Z,76.85
2023-03-19T23:17:09.867Z,77.12
2023-03-19T23:19:36.945Z,76.52
2023-03-19T23:22:04.424Z,77.11
2023-03-19T23:24:31.107Z,76.50
2023-03-19T23:26:58.498Z,77.10
2023-03-19T23:29:35.603Z,76.74
2023-03-19T23:32:02.362Z,76.54
2023-03-19T23:34:29.005Z,76.10
2023-03-19T23:36:55.750Z,74.49
2023-03-19T23:39:22.408Z,74.50
2023-03-19T23:41:50.747Z,75.00
2023-03-19T23:44:17.397Z,74.29
2023-03-19T23:46:44.765Z,74.48
2023-03-19T23:49:15.563Z,74.91
2023-03-19T23:51:42.207Z,75.63
2023-03-19T23:54:35.978Z,75.81
2023-03-19T23:57:06.674Z,75.33
2023-03-19T23:59:35.662Z,74.33
